Terminal Aerodrome Forecast
Issued by NWS Omaha/Valley, NE

Home | Current Version | Previous Version | Graphics & Text | Print | Product List | Glossary On
Versions: 1 2 3 4 5 6 7 8 9 10 11 12 13 14 15 16 17 18 19 20
000
FTUS43 KOAX 230520
TAFOFK
TAF
KOFK 230520Z 2306/2406 31004KT P6SM SCT010 OVC020
      TEMPO 2306/2310 3SM BR
     FM231000 27004KT 5SM BR BKN035
      TEMPO 2310/2314 2SM BR
     FM231400 18005KT P6SM SCT250=

USA.gov is the U.S. government's official web portal to all federal, state and local government web resources and services.